sensor_id;sensor_type;location;lat;lon;timestamp;temperature;humidity
23713;DHT22;12035;49.978;8.298;2023-11-22T00:02:19;9.40;71.20
23713;DHT22;12035;49.978;8.298;2023-11-22T00:07:16;9.40;70.90
23713;DHT22;12035;49.978;8.298;2023-11-22T00:12:13;9.40;70.80
23713;DHT22;12035;49.978;8.298;2023-11-22T00:17:13;9.40;70.70
23713;DHT22;12035;49.978;8.298;2023-11-22T00:22:11;9.30;70.80
23713;DHT22;12035;49.978;8.298;2023-11-22T00:27:10;9.30;70.90
23713;DHT22;12035;49.978;8.298;2023-11-22T00:32:11;9.40;71.00
23713;DHT22;12035;49.978;8.298;2023-11-22T00:37:08;9.40;71.10
23713;DHT22;12035;49.978;8.298;2023-11-22T00:42:07;9.40;71.70
23713;DHT22;12035;49.978;8.298;2023-11-22T00:47:05;9.40;70.20
23713;DHT22;12035;49.978;8.298;2023-11-22T00:52:02;9.40;69.30
23713;DHT22;12035;49.978;8.298;2023-11-22T00:56:59;9.30;68.80
23713;DHT22;12035;49.978;8.298;2023-11-22T01:01:58;9.20;69.00
23713;DHT22;12035;49.978;8.298;2023-11-22T01:06:56;9.20;69.20
23713;DHT22;12035;49.978;8.298;2023-11-22T01:11:53;9.10;69.40
23713;DHT22;12035;49.978;8.298;2023-11-22T01:16:51;9.10;69.50
23713;DHT22;12035;49.978;8.298;2023-11-22T01:21:49;9.10;69.70
23713;DHT22;12035;49.978;8.298;2023-11-22T01:26:46;9.10;70.00
23713;DHT22;12035;49.978;8.298;2023-11-22T01:31:43;9.10;70.00
23713;DHT22;12035;49.978;8.298;2023-11-22T01:36:42;9.10;70.10
23713;DHT22;12035;49.978;8.298;2023-11-22T01:41:44;9.00;70.10
23713;DHT22;12035;49.978;8.298;2023-11-22T01:46:41;9.00;70.20
23713;DHT22;12035;49.978;8.298;2023-11-22T01:51:40;8.90;70.30
23713;DHT22;12035;49.978;8.298;2023-11-22T01:56:38;9.00;70.40
23713;DHT22;12035;49.978;8.298;2023-11-22T02:01:38;8.90;70.40
23713;DHT22;12035;49.978;8.298;2023-11-22T02:06:36;8.90;70.30
23713;DHT22;12035;49.978;8.298;2023-11-22T02:11:33;8.80;70.30
23713;DHT22;12035;49.978;8.298;2023-11-22T02:16:32;8.80;70.40
23713;DHT22;12035;49.978;8.298;2023-11-22T02:21:29;8.80;70.40
23713;DHT22;12035;49.978;8.298;2023-11-22T02:26:27;8.70;70.40
23713;DHT22;12035;49.978;8.298;2023-11-22T02:31:25;8.60;71.20
23713;DHT22;12035;49.978;8.298;2023-11-22T02:36:23;8.60;70.60
23713;DHT22;12035;49.978;8.298;2023-11-22T02:41:20;8.60;70.60
23713;DHT22;12035;49.978;8.298;2023-11-22T02:46:18;8.60;70.40
23713;DHT22;12035;49.978;8.298;2023-11-22T02:51:15;8.50;70.40
23713;DHT22;12035;49.978;8.298;2023-11-22T02:56:14;8.50;70.40
23713;DHT22;12035;49.978;8.298;2023-11-22T03:01:11;8.50;70.40
23713;DHT22;12035;49.978;8.298;2023-11-22T03:06:10;8.50;70.30
23713;DHT22;12035;49.978;8.298;2023-11-22T03:11:07;8.50;70.10
23713;DHT22;12035;49.978;8.298;2023-11-22T03:16:04;8.40;70.00
23713;DHT22;12035;49.978;8.298;2023-11-22T03:21:01;8.50;69.90
23713;DHT22;12035;49.978;8.298;2023-11-22T03:26:00;8.40;69.50
23713;DHT22;12035;49.978;8.298;2023-11-22T03:30:57;8.40;69.50
23713;DHT22;12035;49.978;8.298;2023-11-22T03:35:54;8.40;69.30
23713;DHT22;12035;49.978;8.298;2023-11-22T03:40:51;8.30;69.30
23713;DHT22;12035;49.978;8.298;2023-11-22T03:45:50;8.30;69.40
23713;DHT22;12035;49.978;8.298;2023-11-22T03:50:47;8.30;69.30
23713;DHT22;12035;49.978;8.298;2023-11-22T03:55:44;8.30;69.30
23713;DHT22;12035;49.978;8.298;2023-11-22T04:00:41;8.30;69.50
23713;DHT22;12035;49.978;8.298;2023-11-22T04:05:39;8.30;69.60
23713;DHT22;12035;49.978;8.298;2023-11-22T04:10:37;8.20;69.50
23713;DHT22;12035;49.978;8.298;2023-11-22T04:15:34;8.30;69.50
23713;DHT22;12035;49.978;8.298;2023-11-22T04:20:31;8.20;69.20
23713;DHT22;12035;49.978;8.298;2023-11-22T04:25:30;8.20;69.20
23713;DHT22;12035;49.978;8.298;2023-11-22T04:30:29;8.10;69.10
23713;DHT22;12035;49.978;8.298;2023-11-22T04:35:26;8.00;69.20
23713;DHT22;12035;49.978;8.298;2023-11-22T04:40:23;8.00;69.10
23713;DHT22;12035;49.978;8.298;2023-11-22T04:45:22;7.90;69.10
23713;DHT22;12035;49.978;8.298;2023-11-22T04:50:18;7.90;69.20
23713;DHT22;12035;49.978;8.298;2023-11-22T04:55:16;7.80;69.30
23713;DHT22;12035;49.978;8.298;2023-11-22T05:00:13;7.80;69.40
23713;DHT22;12035;49.978;8.298;2023-11-22T05:05:14;7.80;69.40
23713;DHT22;12035;49.978;8.298;2023-11-22T05:10:12;7.80;69.20
23713;DHT22;12035;49.978;8.298;2023-11-22T05:15:10;7.80;69.20
23713;DHT22;12035;49.978;8.298;2023-11-22T05:20:08;7.70;69.10
23713;DHT22;12035;49.978;8.298;2023-11-22T05:25:07;7.70;69.10
23713;DHT22;12035;49.978;8.298;2023-11-22T05:30:06;7.70;69.20
23713;DHT22;12035;49.978;8.298;2023-11-22T05:35:07;7.60;69.20
23713;DHT22;12035;49.978;8.298;2023-11-22T05:40:08;7.60;69.30
23713;DHT22;12035;49.978;8.298;2023-11-22T05:45:08;7.50;69.40
23713;DHT22;12035;49.978;8.298;2023-11-22T05:50:07;7.50;69.40
23713;DHT22;12035;49.978;8.298;2023-11-22T05:55:07;7.30;69.30
23713;DHT22;12035;49.978;8.298;2023-11-22T06:00:05;7.30;69.80
23713;DHT22;12035;49.978;8.298;2023-11-22T06:05:04;7.20;70.30
23713;DHT22;12035;49.978;8.298;2023-11-22T06:10:02;7.20;70.40
23713;DHT22;12035;49.978;8.298;2023-11-22T06:15:00;7.20;70.60
23713;DHT22;12035;49.978;8.298;2023-11-22T06:19:59;7.20;70.30
23713;DHT22;12035;49.978;8.298;2023-11-22T06:24:56;7.20;70.30
23713;DHT22;12035;49.978;8.298;2023-11-22T06:29:53;7.10;70.10
23713;DHT22;12035;49.978;8.298;2023-11-22T06:34:51;7.00;69.00
23713;DHT22;12035;49.978;8.298;2023-11-22T06:39:48;6.80;67.80
23713;DHT22;12035;49.978;8.298;2023-11-22T06:44:46;6.60;67.30
23713;DHT22;12035;49.978;8.298;2023-11-22T06:49:44;6.40;66.70
23713;DHT22;12035;49.978;8.298;2023-11-22T06:54:43;6.30;66.90
23713;DHT22;12035;49.978;8.298;2023-11-22T06:59:40;6.20;66.80
23713;DHT22;12035;49.978;8.298;2023-11-22T07:04:37;6.10;66.70
23713;DHT22;12035;49.978;8.298;2023-11-22T07:09:35;6.00;66.70
23713;DHT22;12035;49.978;8.298;2023-11-22T07:14:33;6.00;66.60
23713;DHT22;12035;49.978;8.298;2023-11-22T07:19:30;5.80;66.40
23713;DHT22;12035;49.978;8.298;2023-11-22T07:24:27;5.70;66.80
23713;DHT22;12035;49.978;8.298;2023-11-22T07:29:27;5.70;67.20
23713;DHT22;12035;49.978;8.298;2023-11-22T07:34:26;5.60;67.50
23713;DHT22;12035;49.978;8.298;2023-11-22T07:39:23;5.70;67.70
23713;DHT22;12035;49.978;8.298;2023-11-22T07:44:23;5.80;67.60
23713;DHT22;12035;49.978;8.298;2023-11-22T07:49:20;5.90;67.50
23713;DHT22;12035;49.978;8.298;2023-11-22T07:54:20;5.90;67.50
23713;DHT22;12035;49.978;8.298;2023-11-22T07:59:17;5.90;67.50
23713;DHT22;12035;49.978;8.298;2023-11-22T08:04:15;5.90;67.00
23713;DHT22;12035;49.978;8.298;2023-11-22T08:09:12;5.80;66.90
23713;DHT22;12035;49.978;8.298;2023-11-22T08:14:13;5.60;67.10
23713;DHT22;12035;49.978;8.298;2023-11-22T08:19:10;5.70;67.40
23713;DHT22;12035;49.978;8.298;2023-11-22T08:24:08;5.60;67.30
23713;DHT22;12035;49.978;8.298;2023-11-22T08:29:05;5.60;67.30
23713;DHT22;12035;49.978;8.298;2023-11-22T08:34:04;5.60;67.00
23713;DHT22;12035;49.978;8.298;2023-11-22T08:39:03;5.60;67.40
23713;DHT22;12035;49.978;8.298;2023-11-22T08:44:00;5.50;67.00
23713;DHT22;12035;49.978;8.298;2023-11-22T08:48:57;5.60;67.00
23713;DHT22;12035;49.978;8.298;2023-11-22T08:53:55;5.50;67.00
23713;DHT22;12035;49.978;8.298;2023-11-22T08:58:52;5.50;66.30
23713;DHT22;12035;49.978;8.298;2023-11-22T09:03:50;5.50;66.40
23713;DHT22;12035;49.978;8.298;2023-11-22T09:08:47;5.50;66.20
23713;DHT22;12035;49.978;8.298;2023-11-22T09:13:46;5.50;66.00
23713;DHT22;12035;49.978;8.298;2023-11-22T09:18:43;5.50;66.10
23713;DHT22;12035;49.978;8.298;2023-11-22T09:23:42;5.50;65.70
23713;DHT22;12035;49.978;8.298;2023-11-22T09:28:39;5.40;65.40
23713;DHT22;12035;49.978;8.298;2023-11-22T09:33:38;5.50;66.10
23713;DHT22;12035;49.978;8.298;2023-11-22T09:38:35;5.60;66.40
23713;DHT22;12035;49.978;8.298;2023-11-22T09:43:33;5.80;66.10
23713;DHT22;12035;49.978;8.298;2023-11-22T09:48:31;6.10;66.20
23713;DHT22;12035;49.978;8.298;2023-11-22T09:53:32;6.30;64.80
23713;DHT22;12035;49.978;8.298;2023-11-22T09:58:30;6.50;64.30
23713;DHT22;12035;49.978;8.298;2023-11-22T10:03:28;6.60;63.90
23713;DHT22;12035;49.978;8.298;2023-11-22T10:08:25;6.80;63.70
23713;DHT22;12035;49.978;8.298;2023-11-22T10:13:27;6.90;62.20
23713;DHT22;12035;49.978;8.298;2023-11-22T10:18:24;7.10;62.30
23713;DHT22;12035;49.978;8.298;2023-11-22T10:23:25;7.10;61.50
23713;DHT22;12035;49.978;8.298;2023-11-22T10:28:26;7.10;60.20
23713;DHT22;12035;49.978;8.298;2023-11-22T10:33:25;7.20;60.80
23713;DHT22;12035;49.978;8.298;2023-11-22T10:38:22;7.20;59.80
23713;DHT22;12035;49.978;8.298;2023-11-22T10:43:19;7.10;59.60
23713;DHT22;12035;49.978;8.298;2023-11-22T10:48:20;7.10;59.60
23713;DHT22;12035;49.978;8.298;2023-11-22T10:53:21;7.10;58.90
23713;DHT22;12035;49.978;8.298;2023-11-22T10:58:21;7.20;59.50
23713;DHT22;12035;49.978;8.298;2023-11-22T11:03:25;7.30;59.20
23713;DHT22;12035;49.978;8.298;2023-11-22T11:08:26;7.40;58.60
23713;DHT22;12035;49.978;8.298;2023-11-22T11:13:25;7.40;58.70
23713;DHT22;12035;49.978;8.298;2023-11-22T11:18:25;7.60;58.90
23713;DHT22;12035;49.978;8.298;2023-11-22T11:23:25;7.80;58.80
23713;DHT22;12035;49.978;8.298;2023-11-22T11:28:24;8.00;58.80
23713;DHT22;12035;49.978;8.298;2023-11-22T11:33:32;8.10;58.00
23713;DHT22;12035;49.978;8.298;2023-11-22T11:38:31;8.00;56.30
23713;DHT22;12035;49.978;8.298;2023-11-22T11:43:39;7.90;57.40
23713;DHT22;12035;49.978;8.298;2023-11-22T11:48:42;7.90;57.30
23713;DHT22;12035;49.978;8.298;2023-11-22T11:53:40;7.90;57.40
23713;DHT22;12035;49.978;8.298;2023-11-22T11:58:37;7.90;57.20
23713;DHT22;12035;49.978;8.298;2023-11-22T12:03:35;7.80;57.00
23713;DHT22;12035;49.978;8.298;2023-11-22T12:08:34;7.80;57.40
23713;DHT22;12035;49.978;8.298;2023-11-22T12:13:32;7.80;57.00
23713;DHT22;12035;49.978;8.298;2023-11-22T12:18:29;7.80;57.40
23713;DHT22;12035;49.978;8.298;2023-11-22T12:23:29;7.90;57.50
23713;DHT22;12035;49.978;8.298;2023-11-22T12:28:27;8.00;57.80
23713;DHT22;12035;49.978;8.298;2023-11-22T12:33:27;8.20;57.70
23713;DHT22;12035;49.978;8.298;2023-11-22T12:38:24;8.20;57.60
23713;DHT22;12035;49.978;8.298;2023-11-22T12:43:23;8.30;56.80
23713;DHT22;12035;49.978;8.298;2023-11-22T12:48:22;8.30;56.70
23713;DHT22;12035;49.978;8.298;2023-11-22T12:53:20;8.20;56.00
23713;DHT22;12035;49.978;8.298;2023-11-22T12:58:18;8.20;56.50
23713;DHT22;12035;49.978;8.298;2023-11-22T13:03:18;8.10;56.70
23713;DHT22;12035;49.978;8.298;2023-11-22T13:08:15;8.20;56.90
23713;DHT22;12035;49.978;8.298;2023-11-22T13:13:12;8.20;56.60
23713;DHT22;12035;49.978;8.298;2023-11-22T13:18:09;8.10;56.60
23713;DHT22;12035;49.978;8.298;2023-11-22T13:23:08;8.10;56.40
23713;DHT22;12035;49.978;8.298;2023-11-22T13:28:06;8.10;56.70
23713;DHT22;12035;49.978;8.298;2023-11-22T13:33:04;8.10;56.70
23713;DHT22;12035;49.978;8.298;2023-11-22T13:38:01;8.10;56.50
23713;DHT22;12035;49.978;8.298;2023-11-22T13:43:00;8.00;56.60
23713;DHT22;12035;49.978;8.298;2023-11-22T13:47:59;8.00;56.80
23713;DHT22;12035;49.978;8.298;2023-11-22T13:53:01;8.10;56.60
23713;DHT22;12035;49.978;8.298;2023-11-22T13:58:00;8.10;56.80
23713;DHT22;12035;49.978;8.298;2023-11-22T14:02:58;8.10;57.00
23713;DHT22;12035;49.978;8.298;2023-11-22T14:08:02;8.10;57.00
23713;DHT22;12035;49.978;8.298;2023-11-22T14:13:01;8.20;57.00
23713;DHT22;12035;49.978;8.298;2023-11-22T14:18:01;8.20;56.90
23713;DHT22;12035;49.978;8.298;2023-11-22T14:22:59;8.30;57.20
23713;DHT22;12035;49.978;8.298;2023-11-22T14:27:58;8.30;57.30
23713;DHT22;12035;49.978;8.298;2023-11-22T14:32:56;8.40;57.40
23713;DHT22;12035;49.978;8.298;2023-11-22T14:37:55;8.40;56.80
23713;DHT22;12035;49.978;8.298;2023-11-22T14:42:54;8.30;56.80
23713;DHT22;12035;49.978;8.298;2023-11-22T14:47:52;8.30;56.90
23713;DHT22;12035;49.978;8.298;2023-11-22T14:52:59;8.30;56.90
23713;DHT22;12035;49.978;8.298;2023-11-22T14:57:59;8.30;57.10
23713;DHT22;12035;49.978;8.298;2023-11-22T15:02:56;8.30;57.20
23713;DHT22;12035;49.978;8.298;2023-11-22T15:07:59;8.30;57.30
23713;DHT22;12035;49.978;8.298;2023-11-22T15:12:56;8.20;57.10
23713;DHT22;12035;49.978;8.298;2023-11-22T15:17:54;8.20;57.30
23713;DHT22;12035;49.978;8.298;2023-11-22T15:22:51;8.20;57.50
23713;DHT22;12035;49.978;8.298;2023-11-22T15:27:50;8.20;57.60
23713;DHT22;12035;49.978;8.298;2023-11-22T15:32:50;8.20;57.40
23713;DHT22;12035;49.978;8.298;2023-11-22T15:37:50;8.10;57.60
23713;DHT22;12035;49.978;8.298;2023-11-22T15:42:49;8.10;57.70
23713;DHT22;12035;49.978;8.298;2023-11-22T15:47:50;8.10;57.70
23713;DHT22;12035;49.978;8.298;2023-11-22T15:52:47;8.10;57.90
23713;DHT22;12035;49.978;8.298;2023-11-22T15:57:44;8.00;57.90
23713;DHT22;12035;49.978;8.298;2023-11-22T16:02:43;8.00;58.10
23713;DHT22;12035;49.978;8.298;2023-11-22T16:07:40;8.00;58.10
23713;DHT22;12035;49.978;8.298;2023-11-22T16:12:37;7.90;58.20
23713;DHT22;12035;49.978;8.298;2023-11-22T16:17:34;8.00;58.50
23713;DHT22;12035;49.978;8.298;2023-11-22T16:22:33;8.00;58.50
23713;DHT22;12035;49.978;8.298;2023-11-22T16:27:34;8.00;58.50
23713;DHT22;12035;49.978;8.298;2023-11-22T16:32:31;8.00;58.50
23713;DHT22;12035;49.978;8.298;2023-11-22T16:37:28;8.00;58.40
23713;DHT22;12035;49.978;8.298;2023-11-22T16:42:26;7.90;58.30
23713;DHT22;12035;49.978;8.298;2023-11-22T16:47:23;7.90;58.20
23713;DHT22;12035;49.978;8.298;2023-11-22T16:52:20;7.90;58.40
23713;DHT22;12035;49.978;8.298;2023-11-22T16:57:20;7.80;58.40
23713;DHT22;12035;49.978;8.298;2023-11-22T17:02:19;7.80;58.60
23713;DHT22;12035;49.978;8.298;2023-11-22T17:07:17;7.80;58.70
23713;DHT22;12035;49.978;8.298;2023-11-22T17:12:14;7.80;58.70
23713;DHT22;12035;49.978;8.298;2023-11-22T17:17:11;7.70;58.70
23713;DHT22;12035;49.978;8.298;2023-11-22T17:22:09;7.70;58.50
23713;DHT22;12035;49.978;8.298;2023-11-22T17:27:06;7.60;58.60
23713;DHT22;12035;49.978;8.298;2023-11-22T17:32:04;7.50;58.80
23713;DHT22;12035;49.978;8.298;2023-11-22T17:37:01;7.50;59.00
23713;DHT22;12035;49.978;8.298;2023-11-22T17:42:00;7.40;59.10
23713;DHT22;12035;49.978;8.298;2023-11-22T17:46:57;7.40;59.10
23713;DHT22;12035;49.978;8.298;2023-11-22T17:51:54;7.40;59.10
23713;DHT22;12035;49.978;8.298;2023-11-22T17:56:51;7.40;59.00
23713;DHT22;12035;49.978;8.298;2023-11-22T18:01:49;7.30;59.00
23713;DHT22;12035;49.978;8.298;2023-11-22T18:06:47;7.30;58.80
23713;DHT22;12035;49.978;8.298;2023-11-22T18:11:44;7.20;59.00
23713;DHT22;12035;49.978;8.298;2023-11-22T18:16:42;7.10;59.10
23713;DHT22;12035;49.978;8.298;2023-11-22T18:21:42;7.10;59.20
23713;DHT22;12035;49.978;8.298;2023-11-22T18:26:39;7.00;59.30
23713;DHT22;12035;49.978;8.298;2023-11-22T18:31:36;6.90;59.40
23713;DHT22;12035;49.978;8.298;2023-11-22T18:36:33;6.80;59.50
23713;DHT22;12035;49.978;8.298;2023-11-22T18:41:31;6.80;59.70
23713;DHT22;12035;49.978;8.298;2023-11-22T18:46:29;6.70;59.80
23713;DHT22;12035;49.978;8.298;2023-11-22T18:51:26;6.70;59.90
23713;DHT22;12035;49.978;8.298;2023-11-22T18:56:23;6.70;59.90
23713;DHT22;12035;49.978;8.298;2023-11-22T19:01:21;6.60;59.90
23713;DHT22;12035;49.978;8.298;2023-11-22T19:06:18;6.60;60.00
23713;DHT22;12035;49.978;8.298;2023-11-22T19:11:16;6.50;60.80
23713;DHT22;12035;49.978;8.298;2023-11-22T19:16:13;6.40;60.00
23713;DHT22;12035;49.978;8.298;2023-11-22T19:21:17;6.40;60.30
23713;DHT22;12035;49.978;8.298;2023-11-22T19:26:20;6.40;60.50
23713;DHT22;12035;49.978;8.298;2023-11-22T19:31:17;6.30;60.60
23713;DHT22;12035;49.978;8.298;2023-11-22T19:36:20;6.30;60.70
23713;DHT22;12035;49.978;8.298;2023-11-22T19:41:18;6.30;60.80
23713;DHT22;12035;49.978;8.298;2023-11-22T19:46:17;6.30;60.90
23713;DHT22;12035;49.978;8.298;2023-11-22T19:51:14;6.40;61.20
23713;DHT22;12035;49.978;8.298;2023-11-22T19:56:12;6.40;61.10
23713;DHT22;12035;49.978;8.298;2023-11-22T20:01:09;6.30;61.10
23713;DHT22;12035;49.978;8.298;2023-11-22T20:06:06;6.40;61.30
23713;DHT22;12035;49.978;8.298;2023-11-22T20:11:07;6.40;61.40
23713;DHT22;12035;49.978;8.298;2023-11-22T20:16:05;6.40;61.40
23713;DHT22;12035;49.978;8.298;2023-11-22T20:21:03;6.40;61.40
23713;DHT22;12035;49.978;8.298;2023-11-22T20:26:00;6.40;61.40
23713;DHT22;12035;49.978;8.298;2023-11-22T20:30:58;6.40;61.60
23713;DHT22;12035;49.978;8.298;2023-11-22T20:35:57;6.30;61.60
23713;DHT22;12035;49.978;8.298;2023-11-22T20:40:54;6.30;61.70
23713;DHT22;12035;49.978;8.298;2023-11-22T20:45:51;6.30;61.80
23713;DHT22;12035;49.978;8.298;2023-11-22T20:50:49;6.30;61.90
23713;DHT22;12035;49.978;8.298;2023-11-22T20:55:48;6.30;62.20
23713;DHT22;12035;49.978;8.298;2023-11-22T21:00:45;6.30;62.40
23713;DHT22;12035;49.978;8.298;2023-11-22T21:05:42;6.30;62.40
23713;DHT22;12035;49.978;8.298;2023-11-22T21:10:39;6.30;62.30
23713;DHT22;12035;49.978;8.298;2023-11-22T21:15:37;6.40;62.30
23713;DHT22;12035;49.978;8.298;2023-11-22T21:20:34;6.40;62.40
23713;DHT22;12035;49.978;8.298;2023-11-22T21:25:31;6.30;62.40
23713;DHT22;12035;49.978;8.298;2023-11-22T21:30:29;6.30;62.40
23713;DHT22;12035;49.978;8.298;2023-11-22T21:35:27;6.30;62.30
23713;DHT22;12035;49.978;8.298;2023-11-22T21:40:25;6.30;62.60
23713;DHT22;12035;49.978;8.298;2023-11-22T21:45:22;6.30;62.70
23713;DHT22;12035;49.978;8.298;2023-11-22T21:50:19;6.40;62.80
23713;DHT22;12035;49.978;8.298;2023-11-22T21:55:18;6.40;62.90
23713;DHT22;12035;49.978;8.298;2023-11-22T22:00:15;6.50;62.90
23713;DHT22;12035;49.978;8.298;2023-11-22T22:05:13;6.50;62.90
23713;DHT22;12035;49.978;8.298;2023-11-22T22:10:11;6.60;62.80
23713;DHT22;12035;49.978;8.298;2023-11-22T22:15:09;6.60;62.80
23713;DHT22;12035;49.978;8.298;2023-11-22T22:20:07;6.60;62.90
23713;DHT22;12035;49.978;8.298;2023-11-22T22:25:06;6.60;62.90
23713;DHT22;12035;49.978;8.298;2023-11-22T22:30:05;6.60;62.90
23713;DHT22;12035;49.978;8.298;2023-11-22T22:35:05;6.60;62.90
23713;DHT22;12035;49.978;8.298;2023-11-22T22:40:04;6.60;62.90
23713;DHT22;12035;49.978;8.298;2023-11-22T22:45:02;6.70;62.80
23713;DHT22;12035;49.978;8.298;2023-11-22T22:49:59;6.60;62.80
23713;DHT22;12035;49.978;8.298;2023-11-22T22:54:58;6.60;62.70
23713;DHT22;12035;49.978;8.298;2023-11-22T22:59:55;6.60;62.80
23713;DHT22;12035;49.978;8.298;2023-11-22T23:04:52;6.60;62.90
23713;DHT22;12035;49.978;8.298;2023-11-22T23:09:49;6.50;62.90
23713;DHT22;12035;49.978;8.298;2023-11-22T23:14:47;6.50;63.00
23713;DHT22;12035;49.978;8.298;2023-11-22T23:19:44;6.50;63.10
23713;DHT22;12035;49.978;8.298;2023-11-22T23:24:42;6.50;63.20
23713;DHT22;12035;49.978;8.298;2023-11-22T23:29:39;6.50;63.20
23713;DHT22;12035;49.978;8.298;2023-11-22T23:34:37;6.50;63.30
23713;DHT22;12035;49.978;8.298;2023-11-22T23:39:35;6.50;63.20
23713;DHT22;12035;49.978;8.298;2023-11-22T23:44:32;6.50;63.20
23713;DHT22;12035;49.978;8.298;2023-11-22T23:49:29;6.50;63.40
23713;DHT22;12035;49.978;8.298;2023-11-22T23:54:28;6.50;63.10
23713;DHT22;12035;49.978;8.298;2023-11-22T23:59:25;6.50;63.20
